Terminal Aerodrome Forecast
Issued by NWS Sioux Falls, SD

Home | Current Version | Previous Version | Graphics & Text | Print | Product List | Glossary On
Versions: 1 2 3 4 5 6 7 8 9 10 11 12 13 14 15 16 17 18 19 20
151
FTUS43 KFSD 040538
TAFFSD
TAF
KFSD 040538Z 0406/0506 23005KT P6SM SCT040 BKN080
     FM041400 26007KT P6SM SCT080
     FM041800 32009KT P6SM SCT070
     FM042300 VRB04KT P6SM SCT090=

USA.gov is the U.S. government's official web portal to all federal, state and local government web resources and services.